Ashford, Connecticut
Current Conditions -  °F | °C
As of 10:52 AM on Wednesday 28 Jan 2015 (Local Time) from KIJD Reporting Station
Clear Clear  
Wind Chill:   Ceiling: Unl
Heat Index: 19°   Visibility: 10mi
Dew Point:   Wind: 16mph
Humidity: 50%   Direction: 350°N
Pressure: 29.98"   Gusts: 25mph
Location:  41.87°N, 72.12°W
Report Text: KIJD 281552Z AUTO 35014G22KT 10SM CLR M07/M16 A2998 RMK AO2 SLP157 T10721161
Loading
Personal Weather Stations






























Interactive Weather Map New forecast layout! Learn more

10-Day Weather Forecast

Advertisements
Track Severe Weather on mobile